Pagrindinis puslapis
METAR-TAF:

METAR-TAF

Oro uostai :

Dakaras, Senegalas

platuma: 14-44N, ilguma: 017-30W, Aukštis: 27 m

Dabartinis oras

Ataskaita buvo paskelbta 2 valandos ir 29 minutes, ne 03:00 UTC
Ramus vėjas
Temperatūra 27°C
Drėgmė 94%
Slėgis 1012 hPa
Matomumas: 8000 m
Išsisklaidę debesys ne aukštis 1300 ft

METAR: GOOY 180300Z 00000KT 8000 SCT013 27/26 Q1012

Laikas: 05:29 (05:29 UTC)

Prognozė

Ataskaita buvo paskelbta 5 valandos ir 59 minutes, ne 23:30 UTC
Prognozė galioja nuo 18 metu 00 UTC su 19 metu 06 UTC
Vėjas 7 kt iš Vakarų
Matomumas: 8000 m
Išsisklaidę debesys ne aukštis 1300 ft
Tikimybė 30% :
Laikinai
nuo 18 metu 19 UTC su 19 metu 01 UTC
Matomumas: 4500 m
Su prošvaistėmis ne aukštis 1000 ft
Mažai debesys ne aukštis 2500 ft, Liūtiniai kamuoliniai debesys.
perkūnija, lietus

TAF: GOOY 172330Z 1800/1906 26007KT 8000 SCT013 PROB30 TEMPO 1819/1901 4500 TSRA BKN010 FEW025CB

Orai ataskaitas ir orų prognozės (METAR, TAF).

turimą stotys yra geltonos ir raudonos taškus žemėlapyje.

Perkelti pele per norėdami pamatyti stoties vardą.

Tada spustelėkite, norėdami matyti oro stebėjimo ir prognozės.

Norėdami pakeisti žemėlapį: spustelėkite ant žalios mygtukų su juodo kryžiaus žemyn,; žalią mygtuką su brūkšneliu, jei norite nutolinti; arba žalių rodyklių gretimoms žemėlapius.


METAR-TAF: